sensor_id;sensor_type;location;lat;lon;timestamp;P1;durP1;ratioP1;P2;durP2;ratioP2
48034;SDS011;33812;46.480;6.834;2023-04-15T00:03:25;6.63;;;1.17;;
48034;SDS011;33812;46.480;6.834;2023-04-15T00:07:27;5.93;;;1.08;;
48034;SDS011;33812;46.480;6.834;2023-04-15T00:11:29;7.45;;;1.13;;
48034;SDS011;33812;46.480;6.834;2023-04-15T00:15:33;2.45;;;0.70;;
48034;SDS011;33812;46.480;6.834;2023-04-15T00:19:38;4.10;;;1.25;;
48034;SDS011;33812;46.480;6.834;2023-04-15T00:23:41;8.15;;;1.67;;
48034;SDS011;33812;46.480;6.834;2023-04-15T00:27:44;6.18;;;1.25;;
48034;SDS011;33812;46.480;6.834;2023-04-15T00:31:46;10.98;;;2.22;;
48034;SDS011;33812;46.480;6.834;2023-04-15T00:35:50;4.45;;;1.10;;
48034;SDS011;33812;46.480;6.834;2023-04-15T00:44:05;6.85;;;1.60;;
48034;SDS011;33812;46.480;6.834;2023-04-15T00:48:07;7.95;;;1.42;;
48034;SDS011;33812;46.480;6.834;2023-04-15T00:52:10;4.85;;;1.25;;
48034;SDS011;33812;46.480;6.834;2023-04-15T00:56:12;6.47;;;1.30;;
48034;SDS011;33812;46.480;6.834;2023-04-15T01:00:14;3.65;;;1.00;;
48034;SDS011;33812;46.480;6.834;2023-04-15T01:04:17;4.28;;;0.70;;
48034;SDS011;33812;46.480;6.834;2023-04-15T01:08:20;4.18;;;1.10;;
48034;SDS011;33812;46.480;6.834;2023-04-15T01:12:22;4.93;;;1.23;;
48034;SDS011;33812;46.480;6.834;2023-04-15T01:24:34;6.72;;;1.52;;
48034;SDS011;33812;46.480;6.834;2023-04-15T01:28:38;7.57;;;1.50;;
48034;SDS011;33812;46.480;6.834;2023-04-15T01:32:47;2.83;;;0.73;;
48034;SDS011;33812;46.480;6.834;2023-04-15T01:36:51;7.57;;;1.67;;
48034;SDS011;33812;46.480;6.834;2023-04-15T01:40:53;2.55;;;0.75;;
48034;SDS011;33812;46.480;6.834;2023-04-15T01:44:57;5.95;;;1.25;;
48034;SDS011;33812;46.480;6.834;2023-04-15T01:49:00;5.15;;;1.20;;
48034;SDS011;33812;46.480;6.834;2023-04-15T01:53:02;7.20;;;1.33;;
48034;SDS011;33812;46.480;6.834;2023-04-15T01:57:04;9.05;;;1.83;;
48034;SDS011;33812;46.480;6.834;2023-04-15T02:01:07;5.95;;;1.30;;
48034;SDS011;33812;46.480;6.834;2023-04-15T02:05:11;5.18;;;1.17;;
48034;SDS011;33812;46.480;6.834;2023-04-15T02:09:13;4.20;;;1.10;;
48034;SDS011;33812;46.480;6.834;2023-04-15T02:13:15;3.38;;;1.00;;
48034;SDS011;33812;46.480;6.834;2023-04-15T02:17:19;3.97;;;1.05;;
48034;SDS011;33812;46.480;6.834;2023-04-15T02:21:22;5.47;;;1.10;;
48034;SDS011;33812;46.480;6.834;2023-04-15T02:25:32;1.60;;;0.52;;
48034;SDS011;33812;46.480;6.834;2023-04-15T02:29:34;2.67;;;0.77;;
48034;SDS011;33812;46.480;6.834;2023-04-15T02:33:39;2.30;;;0.80;;
48034;SDS011;33812;46.480;6.834;2023-04-15T02:37:41;6.97;;;1.25;;
48034;SDS011;33812;46.480;6.834;2023-04-15T02:41:45;3.10;;;0.90;;
48034;SDS011;33812;46.480;6.834;2023-04-15T02:45:54;3.03;;;0.73;;
48034;SDS011;33812;46.480;6.834;2023-04-15T02:50:03;5.80;;;1.80;;
48034;SDS011;33812;46.480;6.834;2023-04-15T02:54:07;2.45;;;0.60;;
48034;SDS011;33812;46.480;6.834;2023-04-15T02:58:10;2.03;;;0.70;;
48034;SDS011;33812;46.480;6.834;2023-04-15T03:02:12;9.48;;;1.88;;
48034;SDS011;33812;46.480;6.834;2023-04-15T03:06:16;5.40;;;1.20;;
48034;SDS011;33812;46.480;6.834;2023-04-15T03:10:18;5.53;;;1.00;;
48034;SDS011;33812;46.480;6.834;2023-04-15T03:14:20;4.38;;;1.20;;
48034;SDS011;33812;46.480;6.834;2023-04-15T03:18:22;10.10;;;1.30;;
48034;SDS011;33812;46.480;6.834;2023-04-15T03:22:25;6.35;;;1.23;;
48034;SDS011;33812;46.480;6.834;2023-04-15T03:26:28;6.07;;;1.15;;
48034;SDS011;33812;46.480;6.834;2023-04-15T03:30:31;7.15;;;1.50;;
48034;SDS011;33812;46.480;6.834;2023-04-15T03:34:33;7.55;;;1.48;;
48034;SDS011;33812;46.480;6.834;2023-04-15T03:38:36;3.85;;;1.08;;
48034;SDS011;33812;46.480;6.834;2023-04-15T03:42:39;6.93;;;0.95;;
48034;SDS011;33812;46.480;6.834;2023-04-15T03:46:42;4.47;;;1.13;;
48034;SDS011;33812;46.480;6.834;2023-04-15T03:50:44;7.97;;;1.75;;
48034;SDS011;33812;46.480;6.834;2023-04-15T03:54:47;5.93;;;1.10;;
48034;SDS011;33812;46.480;6.834;2023-04-15T03:58:49;3.13;;;0.80;;
48034;SDS011;33812;46.480;6.834;2023-04-15T04:02:51;11.77;;;2.20;;
48034;SDS011;33812;46.480;6.834;2023-04-15T04:06:52;4.32;;;0.90;;
48034;SDS011;33812;46.480;6.834;2023-04-15T04:10:55;4.13;;;1.13;;
48034;SDS011;33812;46.480;6.834;2023-04-15T04:14:57;2.50;;;1.05;;
48034;SDS011;33812;46.480;6.834;2023-04-15T04:19:00;3.38;;;1.05;;
48034;SDS011;33812;46.480;6.834;2023-04-15T04:23:02;3.70;;;0.85;;
48034;SDS011;33812;46.480;6.834;2023-04-15T04:27:05;1.58;;;0.52;;
48034;SDS011;33812;46.480;6.834;2023-04-15T04:31:08;3.08;;;0.85;;
48034;SDS011;33812;46.480;6.834;2023-04-15T04:35:10;4.20;;;0.75;;
48034;SDS011;33812;46.480;6.834;2023-04-15T04:39:12;3.72;;;0.95;;
48034;SDS011;33812;46.480;6.834;2023-04-15T04:43:18;8.93;;;1.60;;
48034;SDS011;33812;46.480;6.834;2023-04-15T04:47:19;3.30;;;0.50;;
48034;SDS011;33812;46.480;6.834;2023-04-15T04:51:22;2.28;;;0.63;;
48034;SDS011;33812;46.480;6.834;2023-04-15T04:55:24;1.40;;;0.60;;
48034;SDS011;33812;46.480;6.834;2023-04-15T04:59:28;0.70;;;0.50;;
48034;SDS011;33812;46.480;6.834;2023-04-15T05:03:31;0.88;;;0.50;;
48034;SDS011;33812;46.480;6.834;2023-04-15T05:07:35;3.83;;;0.90;;
48034;SDS011;33812;46.480;6.834;2023-04-15T05:11:38;12.43;;;2.42;;
48034;SDS011;33812;46.480;6.834;2023-04-15T05:15:52;3.30;;;0.95;;
48034;SDS011;33812;46.480;6.834;2023-04-15T05:19:54;1.60;;;0.40;;
48034;SDS011;33812;46.480;6.834;2023-04-15T05:23:56;10.35;;;2.15;;
48034;SDS011;33812;46.480;6.834;2023-04-15T05:27:59;1.70;;;0.57;;
48034;SDS011;33812;46.480;6.834;2023-04-15T05:32:05;0.68;;;0.50;;
48034;SDS011;33812;46.480;6.834;2023-04-15T05:36:07;21.42;;;3.92;;
48034;SDS011;33812;46.480;6.834;2023-04-15T05:40:17;2.35;;;0.57;;
48034;SDS011;33812;46.480;6.834;2023-04-15T05:44:19;7.63;;;1.52;;
48034;SDS011;33812;46.480;6.834;2023-04-15T05:48:22;12.00;;;2.13;;
48034;SDS011;33812;46.480;6.834;2023-04-15T05:52:24;3.15;;;0.73;;
48034;SDS011;33812;46.480;6.834;2023-04-15T05:56:27;4.50;;;1.00;;
48034;SDS011;33812;46.480;6.834;2023-04-15T06:00:29;6.80;;;0.95;;
48034;SDS011;33812;46.480;6.834;2023-04-15T06:04:35;7.60;;;1.08;;
48034;SDS011;33812;46.480;6.834;2023-04-15T06:08:37;18.02;;;2.92;;
48034;SDS011;33812;46.480;6.834;2023-04-15T06:12:39;5.70;;;0.85;;
48034;SDS011;33812;46.480;6.834;2023-04-15T06:16:42;15.80;;;2.33;;
48034;SDS011;33812;46.480;6.834;2023-04-15T06:20:46;6.93;;;0.95;;
48034;SDS011;33812;46.480;6.834;2023-04-15T06:24:48;7.13;;;1.13;;
48034;SDS011;33812;46.480;6.834;2023-04-15T06:28:50;9.98;;;2.03;;
48034;SDS011;33812;46.480;6.834;2023-04-15T06:32:52;17.17;;;3.40;;
48034;SDS011;33812;46.480;6.834;2023-04-15T06:36:57;5.15;;;1.23;;
48034;SDS011;33812;46.480;6.834;2023-04-15T06:40:58;8.50;;;1.42;;
48034;SDS011;33812;46.480;6.834;2023-04-15T06:45:00;10.18;;;2.20;;
48034;SDS011;33812;46.480;6.834;2023-04-15T06:49:02;4.68;;;1.40;;
48034;SDS011;33812;46.480;6.834;2023-04-15T06:53:07;9.77;;;2.13;;
48034;SDS011;33812;46.480;6.834;2023-04-15T06:57:09;6.10;;;0.77;;
48034;SDS011;33812;46.480;6.834;2023-04-15T07:01:12;6.50;;;1.15;;
48034;SDS011;33812;46.480;6.834;2023-04-15T07:05:14;19.38;;;1.50;;
48034;SDS011;33812;46.480;6.834;2023-04-15T07:09:17;12.90;;;1.95;;
48034;SDS011;33812;46.480;6.834;2023-04-15T07:13:19;12.02;;;2.60;;
48034;SDS011;33812;46.480;6.834;2023-04-15T07:17:21;3.67;;;1.00;;
48034;SDS011;33812;46.480;6.834;2023-04-15T07:21:24;13.95;;;1.33;;
48034;SDS011;33812;46.480;6.834;2023-04-15T07:25:28;6.18;;;0.85;;
48034;SDS011;33812;46.480;6.834;2023-04-15T07:29:29;14.75;;;2.03;;
48034;SDS011;33812;46.480;6.834;2023-04-15T07:33:31;16.92;;;2.40;;
48034;SDS011;33812;46.480;6.834;2023-04-15T07:37:33;10.27;;;1.60;;
48034;SDS011;33812;46.480;6.834;2023-04-15T07:41:36;6.22;;;1.25;;
48034;SDS011;33812;46.480;6.834;2023-04-15T07:45:42;9.75;;;0.93;;
48034;SDS011;33812;46.480;6.834;2023-04-15T07:49:43;3.88;;;0.85;;
48034;SDS011;33812;46.480;6.834;2023-04-15T07:53:45;4.13;;;0.85;;
48034;SDS011;33812;46.480;6.834;2023-04-15T07:57:49;7.40;;;1.08;;
48034;SDS011;33812;46.480;6.834;2023-04-15T08:01:51;12.57;;;2.43;;
48034;SDS011;33812;46.480;6.834;2023-04-15T08:05:53;12.63;;;1.45;;
48034;SDS011;33812;46.480;6.834;2023-04-15T08:09:55;20.55;;;3.45;;
48034;SDS011;33812;46.480;6.834;2023-04-15T08:13:58;11.95;;;2.20;;
48034;SDS011;33812;46.480;6.834;2023-04-15T08:18:02;14.48;;;1.65;;
48034;SDS011;33812;46.480;6.834;2023-04-15T08:22:04;11.93;;;2.17;;
48034;SDS011;33812;46.480;6.834;2023-04-15T08:26:06;12.23;;;1.70;;
48034;SDS011;33812;46.480;6.834;2023-04-15T08:30:10;11.75;;;1.25;;
48034;SDS011;33812;46.480;6.834;2023-04-15T08:34:20;3.97;;;0.87;;
48034;SDS011;33812;46.480;6.834;2023-04-15T08:38:22;13.35;;;1.63;;
48034;SDS011;33812;46.480;6.834;2023-04-15T08:42:26;6.95;;;0.80;;
48034;SDS011;33812;46.480;6.834;2023-04-15T08:46:34;7.57;;;1.05;;
48034;SDS011;33812;46.480;6.834;2023-04-15T08:50:36;6.05;;;0.77;;
48034;SDS011;33812;46.480;6.834;2023-04-15T08:54:38;5.60;;;1.10;;
48034;SDS011;33812;46.480;6.834;2023-04-15T08:58:41;13.35;;;1.33;;
48034;SDS011;33812;46.480;6.834;2023-04-15T09:02:45;9.10;;;1.10;;
48034;SDS011;33812;46.480;6.834;2023-04-15T09:06:47;9.60;;;1.00;;
48034;SDS011;33812;46.480;6.834;2023-04-15T09:10:51;11.55;;;1.00;;
48034;SDS011;33812;46.480;6.834;2023-04-15T09:14:54;4.05;;;0.90;;
48034;SDS011;33812;46.480;6.834;2023-04-15T09:18:58;10.93;;;2.33;;
48034;SDS011;33812;46.480;6.834;2023-04-15T09:23:02;11.63;;;1.27;;
48034;SDS011;33812;46.480;6.834;2023-04-15T09:27:14;6.93;;;1.38;;
48034;SDS011;33812;46.480;6.834;2023-04-15T09:31:17;19.38;;;2.05;;
48034;SDS011;33812;46.480;6.834;2023-04-15T09:35:33;9.05;;;2.30;;
48034;SDS011;33812;46.480;6.834;2023-04-15T09:39:45;4.97;;;1.25;;
48034;SDS011;33812;46.480;6.834;2023-04-15T09:43:49;5.72;;;1.02;;
48034;SDS011;33812;46.480;6.834;2023-04-15T09:47:51;13.13;;;2.65;;
48034;SDS011;33812;46.480;6.834;2023-04-15T09:52:00;16.70;;;1.38;;
48034;SDS011;33812;46.480;6.834;2023-04-15T09:56:08;6.65;;;1.30;;
48034;SDS011;33812;46.480;6.834;2023-04-15T10:00:12;11.77;;;1.30;;
48034;SDS011;33812;46.480;6.834;2023-04-15T10:04:14;10.35;;;1.15;;
48034;SDS011;33812;46.480;6.834;2023-04-15T10:08:18;5.43;;;1.42;;
48034;SDS011;33812;46.480;6.834;2023-04-15T10:12:21;12.90;;;1.60;;
48034;SDS011;33812;46.480;6.834;2023-04-15T10:16:25;6.72;;;1.27;;
48034;SDS011;33812;46.480;6.834;2023-04-15T10:20:29;8.82;;;1.38;;
48034;SDS011;33812;46.480;6.834;2023-04-15T10:24:40;8.68;;;1.75;;
48034;SDS011;33812;46.480;6.834;2023-04-15T10:28:44;11.13;;;2.03;;
48034;SDS011;33812;46.480;6.834;2023-04-15T10:32:56;3.72;;;0.95;;
48034;SDS011;33812;46.480;6.834;2023-04-15T10:37:01;4.30;;;1.08;;
48034;SDS011;33812;46.480;6.834;2023-04-15T10:41:13;5.43;;;1.77;;
48034;SDS011;33812;46.480;6.834;2023-04-15T10:45:19;1.65;;;0.70;;
48034;SDS011;33812;46.480;6.834;2023-04-15T10:49:23;9.02;;;1.30;;
48034;SDS011;33812;46.480;6.834;2023-04-15T10:53:26;3.75;;;1.17;;
48034;SDS011;33812;46.480;6.834;2023-04-15T10:57:36;9.32;;;1.48;;
48034;SDS011;33812;46.480;6.834;2023-04-15T11:01:51;2.85;;;0.70;;
48034;SDS011;33812;46.480;6.834;2023-04-15T11:05:55;7.93;;;0.82;;
48034;SDS011;33812;46.480;6.834;2023-04-15T11:09:57;8.45;;;1.33;;
48034;SDS011;33812;46.480;6.834;2023-04-15T11:14:02;10.15;;;1.67;;
48034;SDS011;33812;46.480;6.834;2023-04-15T11:18:07;12.27;;;1.98;;
48034;SDS011;33812;46.480;6.834;2023-04-15T11:22:11;9.77;;;1.17;;
48034;SDS011;33812;46.480;6.834;2023-04-15T11:26:13;5.65;;;0.95;;
48034;SDS011;33812;46.480;6.834;2023-04-15T11:30:18;11.32;;;0.90;;
48034;SDS011;33812;46.480;6.834;2023-04-15T11:34:29;10.20;;;1.15;;
48034;SDS011;33812;46.480;6.834;2023-04-15T11:38:33;4.75;;;1.27;;
48034;SDS011;33812;46.480;6.834;2023-04-15T11:42:39;9.70;;;1.30;;
48034;SDS011;33812;46.480;6.834;2023-04-15T11:46:42;11.63;;;1.65;;
48034;SDS011;33812;46.480;6.834;2023-04-15T11:50:45;175.95;;;80.65;;
48034;SDS011;33812;46.480;6.834;2023-04-15T11:55:00;51.30;;;22.65;;
48034;SDS011;33812;46.480;6.834;2023-04-15T11:59:05;81.32;;;31.85;;
48034;SDS011;33812;46.480;6.834;2023-04-15T12:07:32;32.30;;;14.27;;
48034;SDS011;33812;46.480;6.834;2023-04-15T12:11:35;40.83;;;15.52;;
48034;SDS011;33812;46.480;6.834;2023-04-15T12:15:49;23.35;;;10.82;;
48034;SDS011;33812;46.480;6.834;2023-04-15T12:19:59;23.48;;;8.98;;
48034;SDS011;33812;46.480;6.834;2023-04-15T12:24:02;54.45;;;13.60;;
48034;SDS011;33812;46.480;6.834;2023-04-15T12:28:09;24.30;;;6.77;;
48034;SDS011;33812;46.480;6.834;2023-04-15T12:32:12;21.17;;;6.15;;
48034;SDS011;33812;46.480;6.834;2023-04-15T12:36:16;19.73;;;5.88;;
48034;SDS011;33812;46.480;6.834;2023-04-15T12:40:18;18.10;;;6.07;;
48034;SDS011;33812;46.480;6.834;2023-04-15T12:44:21;19.08;;;5.38;;
48034;SDS011;33812;46.480;6.834;2023-04-15T12:48:24;13.63;;;4.35;;
48034;SDS011;33812;46.480;6.834;2023-04-15T12:52:27;28.65;;;5.40;;
48034;SDS011;33812;46.480;6.834;2023-04-15T12:56:29;11.13;;;3.13;;
48034;SDS011;33812;46.480;6.834;2023-04-15T13:00:32;11.82;;;2.70;;
48034;SDS011;33812;46.480;6.834;2023-04-15T13:04:34;20.08;;;3.72;;
48034;SDS011;33812;46.480;6.834;2023-04-15T13:08:39;14.48;;;3.10;;
48034;SDS011;33812;46.480;6.834;2023-04-15T13:12:41;11.45;;;1.83;;
48034;SDS011;33812;46.480;6.834;2023-04-15T13:16:44;11.20;;;1.35;;
48034;SDS011;33812;46.480;6.834;2023-04-15T13:20:46;10.43;;;1.90;;
48034;SDS011;33812;46.480;6.834;2023-04-15T13:24:50;15.95;;;3.78;;
48034;SDS011;33812;46.480;6.834;2023-04-15T13:28:52;20.05;;;2.25;;
48034;SDS011;33812;46.480;6.834;2023-04-15T13:32:56;16.95;;;2.60;;
48034;SDS011;33812;46.480;6.834;2023-04-15T13:36:58;15.93;;;2.92;;
48034;SDS011;33812;46.480;6.834;2023-04-15T13:41:07;14.13;;;2.85;;
48034;SDS011;33812;46.480;6.834;2023-04-15T13:45:09;14.55;;;2.55;;
48034;SDS011;33812;46.480;6.834;2023-04-15T13:49:11;6.57;;;1.60;;
48034;SDS011;33812;46.480;6.834;2023-04-15T13:53:13;5.65;;;1.85;;
48034;SDS011;33812;46.480;6.834;2023-04-15T13:57:16;8.63;;;2.25;;
48034;SDS011;33812;46.480;6.834;2023-04-15T14:01:18;4.80;;;1.48;;
48034;SDS011;33812;46.480;6.834;2023-04-15T14:05:19;4.20;;;1.25;;
48034;SDS011;33812;46.480;6.834;2023-04-15T14:09:25;13.88;;;2.42;;
48034;SDS011;33812;46.480;6.834;2023-04-15T14:13:28;5.43;;;1.55;;
48034;SDS011;33812;46.480;6.834;2023-04-15T14:17:31;3.38;;;1.20;;
48034;SDS011;33812;46.480;6.834;2023-04-15T14:21:34;11.57;;;2.08;;
48034;SDS011;33812;46.480;6.834;2023-04-15T14:25:36;7.05;;;1.25;;
48034;SDS011;33812;46.480;6.834;2023-04-15T14:29:39;13.73;;;2.72;;
48034;SDS011;33812;46.480;6.834;2023-04-15T14:33:41;4.65;;;1.48;;
48034;SDS011;33812;46.480;6.834;2023-04-15T14:37:43;1.95;;;0.82;;
48034;SDS011;33812;46.480;6.834;2023-04-15T14:41:45;18.48;;;3.33;;
48034;SDS011;33812;46.480;6.834;2023-04-15T14:45:48;2.78;;;0.80;;
48034;SDS011;33812;46.480;6.834;2023-04-15T14:49:50;2.88;;;0.95;;
48034;SDS011;33812;46.480;6.834;2023-04-15T14:53:52;5.47;;;1.23;;
48034;SDS011;33812;46.480;6.834;2023-04-15T14:57:54;6.80;;;1.40;;
48034;SDS011;33812;46.480;6.834;2023-04-15T15:01:57;3.65;;;1.30;;
48034;SDS011;33812;46.480;6.834;2023-04-15T15:06:10;12.48;;;1.58;;
48034;SDS011;33812;46.480;6.834;2023-04-15T15:10:12;2.88;;;0.93;;
48034;SDS011;33812;46.480;6.834;2023-04-15T15:14:14;6.78;;;1.40;;
48034;SDS011;33812;46.480;6.834;2023-04-15T15:18:17;19.00;;;3.00;;
48034;SDS011;33812;46.480;6.834;2023-04-15T15:22:19;16.10;;;1.48;;
48034;SDS011;33812;46.480;6.834;2023-04-15T15:26:21;7.15;;;1.17;;
48034;SDS011;33812;46.480;6.834;2023-04-15T15:30:23;15.38;;;2.00;;
48034;SDS011;33812;46.480;6.834;2023-04-15T15:34:26;10.48;;;1.88;;
48034;SDS011;33812;46.480;6.834;2023-04-15T15:38:28;8.55;;;1.60;;
48034;SDS011;33812;46.480;6.834;2023-04-15T15:42:30;5.75;;;1.08;;
48034;SDS011;33812;46.480;6.834;2023-04-15T15:46:32;12.93;;;2.72;;
48034;SDS011;33812;46.480;6.834;2023-04-15T15:50:36;13.73;;;2.13;;
48034;SDS011;33812;46.480;6.834;2023-04-15T15:54:38;7.63;;;1.42;;
48034;SDS011;33812;46.480;6.834;2023-04-15T15:58:41;9.43;;;2.00;;
48034;SDS011;33812;46.480;6.834;2023-04-15T16:02:44;9.80;;;1.75;;
48034;SDS011;33812;46.480;6.834;2023-04-15T16:06:47;6.28;;;0.80;;
48034;SDS011;33812;46.480;6.834;2023-04-15T16:10:48;30.67;;;3.95;;
48034;SDS011;33812;46.480;6.834;2023-04-15T16:14:50;24.30;;;3.72;;
48034;SDS011;33812;46.480;6.834;2023-04-15T16:18:52;15.52;;;2.40;;
48034;SDS011;33812;46.480;6.834;2023-04-15T16:22:56;26.73;;;3.92;;
48034;SDS011;33812;46.480;6.834;2023-04-15T16:26:58;31.48;;;4.88;;
48034;SDS011;33812;46.480;6.834;2023-04-15T16:31:00;18.90;;;2.70;;
48034;SDS011;33812;46.480;6.834;2023-04-15T16:35:01;26.33;;;3.85;;
48034;SDS011;33812;46.480;6.834;2023-04-15T16:39:05;28.45;;;4.10;;
48034;SDS011;33812;46.480;6.834;2023-04-15T16:43:06;9.27;;;1.85;;
48034;SDS011;33812;46.480;6.834;2023-04-15T16:47:10;7.60;;;1.85;;
48034;SDS011;33812;46.480;6.834;2023-04-15T16:51:12;7.22;;;1.73;;
48034;SDS011;33812;46.480;6.834;2023-04-15T16:55:15;11.57;;;1.58;;
48034;SDS011;33812;46.480;6.834;2023-04-15T16:59:17;12.38;;;2.45;;
48034;SDS011;33812;46.480;6.834;2023-04-15T17:03:18;14.15;;;2.17;;
48034;SDS011;33812;46.480;6.834;2023-04-15T17:07:20;6.90;;;1.35;;
48034;SDS011;33812;46.480;6.834;2023-04-15T17:11:23;6.53;;;1.27;;
48034;SDS011;33812;46.480;6.834;2023-04-15T17:15:26;13.00;;;1.50;;
48034;SDS011;33812;46.480;6.834;2023-04-15T17:19:28;8.40;;;1.23;;
48034;SDS011;33812;46.480;6.834;2023-04-15T17:23:29;6.40;;;1.60;;
48034;SDS011;33812;46.480;6.834;2023-04-15T17:27:32;11.30;;;1.77;;
48034;SDS011;33812;46.480;6.834;2023-04-15T17:31:34;4.25;;;1.10;;
48034;SDS011;33812;46.480;6.834;2023-04-15T17:35:37;6.05;;;1.35;;
48034;SDS011;33812;46.480;6.834;2023-04-15T17:39:39;6.30;;;1.30;;
48034;SDS011;33812;46.480;6.834;2023-04-15T17:43:42;39.45;;;7.95;;
48034;SDS011;33812;46.480;6.834;2023-04-15T17:47:44;47.78;;;10.07;;
48034;SDS011;33812;46.480;6.834;2023-04-15T17:51:46;41.53;;;8.85;;
48034;SDS011;33812;46.480;6.834;2023-04-15T17:55:48;39.55;;;8.40;;
48034;SDS011;33812;46.480;6.834;2023-04-15T17:59:53;27.70;;;6.32;;
48034;SDS011;33812;46.480;6.834;2023-04-15T18:03:55;28.27;;;6.80;;
48034;SDS011;33812;46.480;6.834;2023-04-15T18:07:57;20.33;;;5.45;;
48034;SDS011;33812;46.480;6.834;2023-04-15T18:11:58;178.75;;;35.08;;
48034;SDS011;33812;46.480;6.834;2023-04-15T18:16:02;57.40;;;11.95;;
48034;SDS011;33812;46.480;6.834;2023-04-15T18:20:04;121.30;;;21.67;;
48034;SDS011;33812;46.480;6.834;2023-04-15T18:24:07;91.97;;;19.88;;
48034;SDS011;33812;46.480;6.834;2023-04-15T18:28:08;93.60;;;17.33;;
48034;SDS011;33812;46.480;6.834;2023-04-15T18:32:12;201.82;;;40.92;;
48034;SDS011;33812;46.480;6.834;2023-04-15T18:36:14;156.50;;;35.80;;
48034;SDS011;33812;46.480;6.834;2023-04-15T18:40:17;158.80;;;34.33;;
48034;SDS011;33812;46.480;6.834;2023-04-15T18:44:20;138.88;;;32.03;;
48034;SDS011;33812;46.480;6.834;2023-04-15T18:48:23;130.73;;;31.13;;
48034;SDS011;33812;46.480;6.834;2023-04-15T18:52:32;126.43;;;30.40;;
48034;SDS011;33812;46.480;6.834;2023-04-15T18:56:35;107.75;;;26.63;;
48034;SDS011;33812;46.480;6.834;2023-04-15T19:00:50;103.72;;;25.40;;
48034;SDS011;33812;46.480;6.834;2023-04-15T19:04:53;65.78;;;16.33;;
48034;SDS011;33812;46.480;6.834;2023-04-15T19:08:54;12.15;;;2.35;;
48034;SDS011;33812;46.480;6.834;2023-04-15T19:12:58;3.10;;;0.85;;
48034;SDS011;33812;46.480;6.834;2023-04-15T19:17:06;3.80;;;0.80;;
48034;SDS011;33812;46.480;6.834;2023-04-15T19:21:09;7.05;;;1.27;;
48034;SDS011;33812;46.480;6.834;2023-04-15T19:25:13;18.65;;;1.83;;
48034;SDS011;33812;46.480;6.834;2023-04-15T19:29:15;10.32;;;1.50;;
48034;SDS011;33812;46.480;6.834;2023-04-15T19:33:17;12.93;;;1.90;;
48034;SDS011;33812;46.480;6.834;2023-04-15T19:37:22;26.25;;;2.60;;
48034;SDS011;33812;46.480;6.834;2023-04-15T19:41:24;19.90;;;3.03;;
48034;SDS011;33812;46.480;6.834;2023-04-15T19:45:27;24.98;;;2.72;;
48034;SDS011;33812;46.480;6.834;2023-04-15T19:49:28;11.32;;;2.20;;
48034;SDS011;33812;46.480;6.834;2023-04-15T19:53:32;21.80;;;3.08;;
48034;SDS011;33812;46.480;6.834;2023-04-15T19:57:35;19.10;;;4.05;;
48034;SDS011;33812;46.480;6.834;2023-04-15T20:01:40;18.00;;;2.85;;
48034;SDS011;33812;46.480;6.834;2023-04-15T20:05:42;27.17;;;3.67;;
48034;SDS011;33812;46.480;6.834;2023-04-15T20:09:45;9.80;;;1.48;;
48034;SDS011;33812;46.480;6.834;2023-04-15T20:13:47;16.17;;;2.33;;
48034;SDS011;33812;46.480;6.834;2023-04-15T20:17:49;10.05;;;1.77;;
48034;SDS011;33812;46.480;6.834;2023-04-15T20:21:54;16.50;;;2.78;;
48034;SDS011;33812;46.480;6.834;2023-04-15T20:25:57;12.95;;;2.55;;
48034;SDS011;33812;46.480;6.834;2023-04-15T20:29:59;20.63;;;3.58;;
48034;SDS011;33812;46.480;6.834;2023-04-15T20:34:01;4.93;;;1.48;;
48034;SDS011;33812;46.480;6.834;2023-04-15T20:38:02;16.15;;;2.83;;
48034;SDS011;33812;46.480;6.834;2023-04-15T20:42:06;21.92;;;2.97;;
48034;SDS011;33812;46.480;6.834;2023-04-15T20:46:09;16.42;;;2.88;;
48034;SDS011;33812;46.480;6.834;2023-04-15T20:50:11;19.10;;;2.70;;
48034;SDS011;33812;46.480;6.834;2023-04-15T20:54:12;14.88;;;2.38;;
48034;SDS011;33812;46.480;6.834;2023-04-15T20:58:16;13.45;;;2.00;;
48034;SDS011;33812;46.480;6.834;2023-04-15T21:02:18;17.55;;;2.28;;
48034;SDS011;33812;46.480;6.834;2023-04-15T21:06:20;10.82;;;1.95;;
48034;SDS011;33812;46.480;6.834;2023-04-15T21:10:21;11.02;;;2.03;;
48034;SDS011;33812;46.480;6.834;2023-04-15T21:14:25;12.38;;;2.42;;
48034;SDS011;33812;46.480;6.834;2023-04-15T21:18:27;11.27;;;2.38;;
48034;SDS011;33812;46.480;6.834;2023-04-15T21:22:29;12.43;;;2.17;;
48034;SDS011;33812;46.480;6.834;2023-04-15T21:26:30;16.13;;;2.45;;
48034;SDS011;33812;46.480;6.834;2023-04-15T21:30:34;19.40;;;2.95;;
48034;SDS011;33812;46.480;6.834;2023-04-15T21:34:35;16.08;;;2.72;;
48034;SDS011;33812;46.480;6.834;2023-04-15T21:38:38;10.20;;;1.58;;
48034;SDS011;33812;46.480;6.834;2023-04-15T21:42:40;8.68;;;1.77;;
48034;SDS011;33812;46.480;6.834;2023-04-15T21:46:43;21.38;;;3.45;;
48034;SDS011;33812;46.480;6.834;2023-04-15T21:50:45;20.83;;;2.60;;
48034;SDS011;33812;46.480;6.834;2023-04-15T21:54:47;13.90;;;2.47;;
48034;SDS011;33812;46.480;6.834;2023-04-15T21:58:49;11.35;;;2.30;;
48034;SDS011;33812;46.480;6.834;2023-04-15T22:02:57;13.27;;;2.42;;
48034;SDS011;33812;46.480;6.834;2023-04-15T22:06:58;13.27;;;2.20;;
48034;SDS011;33812;46.480;6.834;2023-04-15T22:11:01;15.02;;;2.65;;
48034;SDS011;33812;46.480;6.834;2023-04-15T22:15:03;8.90;;;2.03;;
48034;SDS011;33812;46.480;6.834;2023-04-15T22:19:07;8.18;;;1.40;;
48034;SDS011;33812;46.480;6.834;2023-04-15T22:23:09;13.48;;;2.05;;
48034;SDS011;33812;46.480;6.834;2023-04-15T22:27:11;12.38;;;1.88;;
48034;SDS011;33812;46.480;6.834;2023-04-15T22:31:13;23.45;;;4.13;;
48034;SDS011;33812;46.480;6.834;2023-04-15T22:35:16;10.13;;;1.90;;
48034;SDS011;33812;46.480;6.834;2023-04-15T22:39:18;20.95;;;3.83;;
48034;SDS011;33812;46.480;6.834;2023-04-15T22:43:20;13.43;;;2.28;;
48034;SDS011;33812;46.480;6.834;2023-04-15T22:47:22;10.90;;;2.00;;
48034;SDS011;33812;46.480;6.834;2023-04-15T22:51:26;9.43;;;1.88;;
48034;SDS011;33812;46.480;6.834;2023-04-15T22:55:28;10.90;;;1.93;;
48034;SDS011;33812;46.480;6.834;2023-04-15T22:59:30;10.60;;;1.92;;
48034;SDS011;33812;46.480;6.834;2023-04-15T23:03:31;8.27;;;1.48;;
48034;SDS011;33812;46.480;6.834;2023-04-15T23:07:35;8.90;;;1.83;;
48034;SDS011;33812;46.480;6.834;2023-04-15T23:11:37;8.48;;;1.27;;
48034;SDS011;33812;46.480;6.834;2023-04-15T23:15:39;10.13;;;1.80;;
48034;SDS011;33812;46.480;6.834;2023-04-15T23:19:41;7.65;;;1.38;;
48034;SDS011;33812;46.480;6.834;2023-04-15T23:23:44;8.10;;;1.42;;
48034;SDS011;33812;46.480;6.834;2023-04-15T23:27:46;9.43;;;1.73;;
48034;SDS011;33812;46.480;6.834;2023-04-15T23:31:50;10.25;;;1.85;;
48034;SDS011;33812;46.480;6.834;2023-04-15T23:35:51;10.32;;;1.58;;
48034;SDS011;33812;46.480;6.834;2023-04-15T23:39:55;11.50;;;1.77;;
48034;SDS011;33812;46.480;6.834;2023-04-15T23:43:57;8.52;;;1.50;;
48034;SDS011;33812;46.480;6.834;2023-04-15T23:47:59;8.13;;;1.63;;
48034;SDS011;33812;46.480;6.834;2023-04-15T23:52:01;15.40;;;2.50;;
48034;SDS011;33812;46.480;6.834;2023-04-15T23:56:04;10.55;;;1.92;;
